This is the latest recevied weather packets stored in our database for station/object CQ0XPG-11. If no packets are shown the sender has not sent any weather packets the latest 10 day(s).
| Time | Temp. | Humidity | Pressure | Rain* | Wind** | Luminosity | Snow |
|---|---|---|---|---|---|---|---|
| 1777930450 | 9.44° C | 100% | 1008.5 hPa | 0 mm | - | - | - |
| 1777930143 | 9.44° C | 100% | 1008.4 hPa | 0 mm | - | - | - |
| 1777929850 | 8.89° C | 100% | 1008.5 hPa | 0 mm | - | - | - |
| 1777929259 | 8.89° C | 100% | 1008.4 hPa | 0 mm | - | - | - |
| 1777928938 | 8.89° C | 100% | 1008.3 hPa | 0 mm | - | - | - |
| 1777928636 | 8.89° C | 100% | 1008.3 hPa | 0 mm | - | - | - |
| 1777927419 | 9.44° C | 100% | 1008.1 hPa | 0 mm | - | - | - |
| 1777927110 | 10° C | 100% | 1008 hPa | 0 mm | - | - | - |
| 1777926836 | 10° C | 100% | 1007.9 hPa | 0 mm | - | - | - |
| 1777926498 | 10.56° C | 100% | 1007.9 hPa | 0 mm | - | - | - |
| 1777926208 | 10.56° C | 100% | 1007.8 hPa | 0 mm | - | - | - |
| 1777925904 | 11.11° C | 100% | 1007.8 hPa | 0 mm | - | - | - |
| 1777925613 | 11.11° C | 100% | 1007.7 hPa | 0 mm | - | - | - |
| 1777925292 | 11.67° C | 100% | 1007.6 hPa | 0 mm | - | - | - |
| 1777925006 | 11.67° C | 100% | 1007.7 hPa | 0 mm | - | - | - |
| 1777924693 | 11.67° C | 100% | 1007.6 hPa | 0 mm | - | - | - |
| 1777924400 | 11.67° C | 100% | 1007.5 hPa | 0 mm | - | - | - |
| 1777924107 | 12.22° C | 100% | 1007.4 hPa | 0 mm | - | - | - |
| 1777923779 | 12.22° C | 100% | 1007.4 hPa | 0 mm | - | - | - |
| 1777923472 | 12.22° C | 100% | 1007.3 hPa | 0 mm | - | - | - |
| 1777923193 | 12.22° C | 100% | 1007.4 hPa | 0 mm | - | - | - |
| 1777922866 | 12.78° C | 100% | 1007.3 hPa | 0 mm | - | - | - |
| 1777920454 | 14.44° C | 73% | 1006.8 hPa | 0 mm | - | - | - |
| 1777920143 | 14.44° C | 73% | 1006.8 hPa | 0 mm | - | - | - |
| 1777919834 | 14.44° C | 73% | 1006.8 hPa | 0 mm | - | - | - |
* Rain since midnight (hover to see other rain measurements)
** Current wind speed in m/s (hover to see current wind gust speed)